createdAt,value
2023-04-27T16:02:00.767Z,55.25
2023-04-27T16:03:33.535Z,53.50
2023-04-27T16:05:06.334Z,56.25
2023-04-27T16:06:39.339Z,57.75
2023-04-27T16:08:11.569Z,60.75
2023-04-27T16:09:43.562Z,62.00
2023-04-27T16:11:16.390Z,63.75
2023-04-27T16:12:48.566Z,65.00
2023-04-27T16:14:20.627Z,66.20
2023-04-27T16:15:52.622Z,64.40
2023-04-27T16:17:25.279Z,68.40
2023-04-27T16:19:00.737Z,67.40
2023-04-27T16:20:33.700Z,69.40
2023-04-27T16:22:07.894Z,72.80
2023-04-27T16:23:39.830Z,78.75
2023-04-27T16:25:12.095Z,84.00
2023-04-27T16:26:43.958Z,77.25
2023-04-27T16:28:18.145Z,80.75
2023-04-27T16:29:50.073Z,84.75
2023-04-27T16:31:22.796Z,91.50
2023-04-27T16:32:55.633Z,90.00
2023-04-27T16:34:28.129Z,95.25
2023-04-27T16:36:00.086Z,92.25
2023-04-27T16:37:33.113Z,101.75
2023-04-27T16:39:05.303Z,98.75
2023-04-27T16:40:37.293Z,104.75
2023-04-27T16:42:09.944Z,106.00
2023-04-27T16:43:41.846Z,102.25
2023-04-27T16:45:13.834Z,102.00
2023-04-27T16:46:45.892Z,105.50
2023-04-27T16:48:17.860Z,103.00
2023-04-27T16:49:49.889Z,104.25
2023-04-27T16:51:21.928Z,98.00
2023-04-27T16:52:53.897Z,102.25
2023-04-27T16:54:25.815Z,101.25
2023-04-27T16:55:59.485Z,111.75
2023-04-27T16:57:31.430Z,175.00
2023-04-27T16:59:05.261Z,137.67
2023-04-27T17:00:38.249Z,133.33
2023-04-27T17:02:22.984Z,123.50
2023-04-27T17:04:01.233Z,117.00
2023-04-27T17:05:33.976Z,113.50
2023-04-27T17:07:07.117Z,119.50
2023-04-27T17:08:39.601Z,112.00
2023-04-27T17:10:11.591Z,115.75
2023-04-27T17:11:43.848Z,113.25
2023-04-27T17:13:17.741Z,227.75
2023-04-27T17:14:49.840Z,186.00
2023-04-27T17:16:22.048Z,169.25
2023-04-27T17:17:54.301Z,164.00
2023-04-27T17:19:28.324Z,145.33
2023-04-27T17:21:00.932Z,143.33
2023-04-27T17:22:33.252Z,137.00
2023-04-27T17:24:05.501Z,131.67
2023-04-27T17:25:37.405Z,203.75
2023-04-27T17:27:09.496Z,207.25
2023-04-27T17:28:41.516Z,188.50
2023-04-27T17:30:13.753Z,161.75
2023-04-27T17:31:46.027Z,155.75
2023-04-27T17:33:18.155Z,153.00
2023-04-27T17:34:50.627Z,143.67
2023-04-27T17:36:22.698Z,145.67
2023-04-27T17:37:55.094Z,144.33
2023-04-27T17:39:27.333Z,159.25
2023-04-27T17:40:59.420Z,171.00
2023-04-27T17:42:31.332Z,157.00
2023-04-27T17:44:04.222Z,137.33
2023-04-27T17:45:36.481Z,136.33
2023-04-27T17:47:08.532Z,135.33
2023-04-27T17:48:40.876Z,130.00
2023-04-27T17:50:15.025Z,134.00
2023-04-27T17:51:47.145Z,125.67
2023-04-27T17:53:19.429Z,130.67
2023-04-27T17:54:51.617Z,129.00
2023-04-27T17:56:24.300Z,143.33
2023-04-27T17:57:56.372Z,167.75
2023-04-27T17:59:29.093Z,146.33
2023-04-27T18:01:01.178Z,132.00
2023-04-27T18:02:33.375Z,134.67
2023-04-27T18:04:07.478Z,135.00
2023-04-27T18:05:39.616Z,126.33
2023-04-27T18:07:11.684Z,126.00
2023-04-27T18:08:43.498Z,127.67
2023-04-27T18:10:15.988Z,131.00
2023-04-27T18:11:47.927Z,129.00
2023-04-27T18:13:19.900Z,126.33
2023-04-27T18:14:52.311Z,120.00
2023-04-27T18:16:24.911Z,167.00
2023-04-27T18:17:57.039Z,162.33
2023-04-27T18:19:28.940Z,145.33
2023-04-27T18:21:01.183Z,128.67
2023-04-27T18:22:33.080Z,145.67
2023-04-27T18:24:06.241Z,143.33
2023-04-27T18:25:38.152Z,134.33
2023-04-27T18:27:10.090Z,126.67
2023-04-27T18:28:42.161Z,130.00
2023-04-27T18:30:14.224Z,129.67
2023-04-27T18:31:46.362Z,139.67
2023-04-27T18:33:20.316Z,130.00
2023-04-27T18:34:52.306Z,133.00
2023-04-27T18:36:25.748Z,133.33
2023-04-27T18:37:57.819Z,133.67
2023-04-27T18:39:30.153Z,130.00
2023-04-27T18:41:02.361Z,137.33
2023-04-27T18:42:34.301Z,134.67
2023-04-27T18:44:06.869Z,128.00
2023-04-27T18:45:39.223Z,136.67
2023-04-27T18:47:14.063Z,137.33
2023-04-27T18:48:46.635Z,133.00
2023-04-27T18:50:19.590Z,122.33
2023-04-27T18:51:51.807Z,131.67
2023-04-27T18:53:23.894Z,130.00
2023-04-27T18:54:55.851Z,128.00
2023-04-27T18:56:27.756Z,120.75
2023-04-27T18:57:59.587Z,121.50
2023-04-27T18:59:31.611Z,127.50
2023-04-27T19:01:04.148Z,124.00
2023-04-27T19:02:36.524Z,121.75
2023-04-27T19:04:08.817Z,115.00
2023-04-27T19:05:43.305Z,117.00
2023-04-27T19:07:15.673Z,104.00
2023-04-27T19:08:47.572Z,115.50
2023-04-27T19:10:19.428Z,111.75
2023-04-27T19:12:00.007Z,97.25
2023-04-27T19:13:35.030Z,102.25
2023-04-27T19:15:07.728Z,96.50
2023-04-27T19:16:39.774Z,104.50
2023-04-27T19:18:12.030Z,105.25
2023-04-27T19:19:45.866Z,90.75
2023-04-27T19:21:17.804Z,91.25
2023-04-27T19:22:49.668Z,99.75
2023-04-27T19:24:21.768Z,94.25
2023-04-27T19:25:57.531Z,97.25
2023-04-27T19:27:32.130Z,100.25
2023-04-27T19:29:04.072Z,96.25
2023-04-27T19:30:35.897Z,98.75
2023-04-27T19:32:07.766Z,89.75
2023-04-27T19:33:46.812Z,89.50
2023-04-27T19:35:20.630Z,90.25
2023-04-27T19:36:52.643Z,88.50
2023-04-27T19:38:25.906Z,93.25
2023-04-27T19:39:57.903Z,90.50
2023-04-27T19:41:30.222Z,89.75
2023-04-27T19:43:03.094Z,87.25
2023-04-27T19:44:35.019Z,90.00
2023-04-27T19:46:06.991Z,76.00
2023-04-27T19:47:39.106Z,79.75
2023-04-27T19:49:11.496Z,75.50
2023-04-27T19:50:43.988Z,79.25
2023-04-27T19:52:15.924Z,75.75
2023-04-27T19:53:47.806Z,77.50
2023-04-27T19:55:19.762Z,72.25
2023-04-27T19:56:51.606Z,77.50
2023-04-27T19:58:23.502Z,74.75
2023-04-27T19:59:55.368Z,71.60
2023-04-27T20:01:28.552Z,66.80
2023-04-27T20:03:00.723Z,64.80
2023-04-27T20:04:33.205Z,62.60
2023-04-27T20:06:05.594Z,72.60
2023-04-27T20:07:37.579Z,75.00
2023-04-27T20:09:09.880Z,75.25
2023-04-27T20:10:42.159Z,72.50
2023-04-27T20:12:34.901Z,72.00
2023-04-27T20:14:06.033Z,70.00
2023-04-27T20:15:37.979Z,74.80
2023-04-27T20:17:09.974Z,69.60
2023-04-27T20:18:42.080Z,69.60
2023-04-27T20:20:13.972Z,70.20
2023-04-27T20:21:45.830Z,72.80
2023-04-27T20:23:17.828Z,70.80
2023-04-27T20:24:50.063Z,68.20
2023-04-27T20:26:22.680Z,68.80
2023-04-27T20:27:54.879Z,69.80
2023-04-27T20:29:27.422Z,65.40
2023-04-27T20:30:59.361Z,63.60
2023-04-27T20:32:31.254Z,65.40
2023-04-27T20:34:03.175Z,64.25
2023-04-27T20:35:37.077Z,60.50
2023-04-27T20:37:09.790Z,60.25
2023-04-27T20:38:41.735Z,69.00
2023-04-27T20:40:17.636Z,73.80
2023-04-27T20:41:51.202Z,78.00
2023-04-27T20:43:23.111Z,70.80
2023-04-27T20:44:56.247Z,75.80
2023-04-27T20:46:28.720Z,71.20
2023-04-27T20:48:00.748Z,73.60
2023-04-27T20:49:35.410Z,72.20
2023-04-27T20:51:07.666Z,68.60
2023-04-27T20:52:39.648Z,69.60
2023-04-27T20:54:11.533Z,70.60
2023-04-27T20:55:43.328Z,68.20
2023-04-27T20:57:15.182Z,64.20
2023-04-27T20:58:47.061Z,67.40
2023-04-27T21:00:19.106Z,68.20
2023-04-27T21:01:50.948Z,64.00
2023-04-27T21:03:22.964Z,64.40
2023-04-27T21:04:55.039Z,60.00
2023-04-27T21:06:26.932Z,61.20
2023-04-27T21:07:58.857Z,61.25
2023-04-27T21:09:31.491Z,68.80
2023-04-27T21:11:03.643Z,70.00
2023-04-27T21:12:35.757Z,55.50
2023-04-27T21:14:07.635Z,53.50
2023-04-27T21:15:39.585Z,57.25
2023-04-27T21:17:11.712Z,60.20
2023-04-27T21:18:43.724Z,65.40
2023-04-27T21:20:16.403Z,64.00
2023-04-27T21:21:48.299Z,67.20
2023-04-27T21:23:20.150Z,68.20
2023-04-27T21:24:52.027Z,63.40
2023-04-27T21:26:23.967Z,65.75
2023-04-27T21:27:55.934Z,65.80
2023-04-27T21:29:28.074Z,61.20
2023-04-27T21:31:00.081Z,62.00
2023-04-27T21:32:32.076Z,57.20
2023-04-27T21:34:03.909Z,63.50
2023-04-27T21:35:35.817Z,64.00
2023-04-27T21:37:07.776Z,63.00
2023-04-27T21:38:39.689Z,60.25
2023-04-27T21:40:11.947Z,60.00
2023-04-27T21:41:43.824Z,53.25
2023-04-27T21:43:15.641Z,52.00
2023-04-27T21:44:47.610Z,55.50
2023-04-27T21:46:19.663Z,55.25
2023-04-27T21:47:51.727Z,50.75
2023-04-27T21:49:23.672Z,56.75
2023-04-27T21:50:55.672Z,50.50
2023-04-27T21:52:27.615Z,54.25
2023-04-27T21:53:59.456Z,45.00
2023-04-27T21:55:31.300Z,51.25
2023-04-27T21:57:04.292Z,50.75
2023-04-27T21:58:36.127Z,46.75
2023-04-27T22:00:13.789Z,43.75
2023-04-27T22:01:52.193Z,44.50
2023-04-27T22:03:24.343Z,49.00
2023-04-27T22:04:56.820Z,53.75
2023-04-27T22:06:28.949Z,63.25
2023-04-27T22:08:00.845Z,56.75
2023-04-27T22:09:32.787Z,53.50
2023-04-27T22:11:04.645Z,56.00
2023-04-27T22:12:36.550Z,62.00
2023-04-27T22:14:08.576Z,58.33
2023-04-27T22:15:40.567Z,55.25
2023-04-27T22:17:15.415Z,48.75
2023-04-27T22:18:47.408Z,53.50
2023-04-27T22:20:19.627Z,53.75
2023-04-27T22:21:51.746Z,50.25
2023-04-27T22:23:23.623Z,56.50
2023-04-27T22:24:55.715Z,50.75
2023-04-27T22:26:27.626Z,50.25
2023-04-27T22:27:59.648Z,51.75
2023-04-27T22:29:31.608Z,48.50
2023-04-27T22:31:03.815Z,48.75
2023-04-27T22:32:35.687Z,50.50
2023-04-27T22:34:07.664Z,47.75
